sensor_id;sensor_type;location;lat;lon;timestamp;P1;durP1;ratioP1;P2;durP2;ratioP2
70420;SDS011;57848;51.938;15.520;2023-06-01T00:00:54;6.72;;;1.50;;
70420;SDS011;57848;51.938;15.520;2023-06-01T00:03:21;7.53;;;1.80;;
70420;SDS011;57848;51.938;15.520;2023-06-01T00:05:48;6.03;;;1.17;;
70420;SDS011;57848;51.938;15.520;2023-06-01T00:08:13;7.73;;;1.80;;
70420;SDS011;57848;51.938;15.520;2023-06-01T00:10:38;6.13;;;1.50;;
70420;SDS011;57848;51.938;15.520;2023-06-01T00:13:04;4.97;;;1.40;;
70420;SDS011;57848;51.938;15.520;2023-06-01T00:15:29;6.40;;;1.53;;
70420;SDS011;57848;51.938;15.520;2023-06-01T00:17:54;6.00;;;1.50;;
70420;SDS011;57848;51.938;15.520;2023-06-01T00:20:21;5.88;;;1.50;;
70420;SDS011;57848;51.938;15.520;2023-06-01T00:22:48;4.90;;;1.33;;
70420;SDS011;57848;51.938;15.520;2023-06-01T00:25:14;6.07;;;1.30;;
70420;SDS011;57848;51.938;15.520;2023-06-01T00:27:40;5.53;;;1.50;;
70420;SDS011;57848;51.938;15.520;2023-06-01T00:30:05;5.80;;;1.67;;
70420;SDS011;57848;51.938;15.520;2023-06-01T00:32:31;5.97;;;1.40;;
70420;SDS011;57848;51.938;15.520;2023-06-01T00:34:56;8.27;;;1.50;;
70420;SDS011;57848;51.938;15.520;2023-06-01T00:37:22;6.30;;;1.33;;
70420;SDS011;57848;51.938;15.520;2023-06-01T00:39:47;5.47;;;1.50;;
70420;SDS011;57848;51.938;15.520;2023-06-01T00:42:12;6.17;;;1.57;;
70420;SDS011;57848;51.938;15.520;2023-06-01T00:44:38;5.73;;;1.47;;
70420;SDS011;57848;51.938;15.520;2023-06-01T00:47:03;4.80;;;1.25;;
70420;SDS011;57848;51.938;15.520;2023-06-01T00:49:29;6.13;;;1.60;;
70420;SDS011;57848;51.938;15.520;2023-06-01T00:51:55;6.70;;;1.87;;
70420;SDS011;57848;51.938;15.520;2023-06-01T00:54:20;7.22;;;1.80;;
70420;SDS011;57848;51.938;15.520;2023-06-01T00:56:46;5.93;;;1.70;;
70420;SDS011;57848;51.938;15.520;2023-06-01T00:59:12;6.50;;;1.40;;
70420;SDS011;57848;51.938;15.520;2023-06-01T01:01:38;6.17;;;1.70;;
70420;SDS011;57848;51.938;15.520;2023-06-01T01:04:07;5.88;;;1.70;;
70420;SDS011;57848;51.938;15.520;2023-06-01T01:06:52;5.88;;;1.55;;
70420;SDS011;57848;51.938;15.520;2023-06-01T01:09:54;6.30;;;1.60;;
70420;SDS011;57848;51.938;15.520;2023-06-01T01:12:27;6.18;;;1.83;;
70420;SDS011;57848;51.938;15.520;2023-06-01T01:14:57;7.03;;;2.00;;
70420;SDS011;57848;51.938;15.520;2023-06-01T01:17:32;7.45;;;1.38;;
70420;SDS011;57848;51.938;15.520;2023-06-01T01:25:50;6.55;;;1.70;;
70420;SDS011;57848;51.938;15.520;2023-06-01T01:31:01;5.43;;;1.50;;
70420;SDS011;57848;51.938;15.520;2023-06-01T01:33:29;6.47;;;1.20;;
70420;SDS011;57848;51.938;15.520;2023-06-01T01:35:56;5.67;;;1.47;;
70420;SDS011;57848;51.938;15.520;2023-06-01T01:38:21;7.50;;;1.60;;
70420;SDS011;57848;51.938;15.520;2023-06-01T01:40:47;11.83;;;1.80;;
70420;SDS011;57848;51.938;15.520;2023-06-01T01:43:14;6.65;;;1.50;;
70420;SDS011;57848;51.938;15.520;2023-06-01T01:45:40;7.60;;;2.25;;
70420;SDS011;57848;51.938;15.520;2023-06-01T01:50:58;5.45;;;1.35;;
70420;SDS011;57848;51.938;15.520;2023-06-01T01:53:28;6.35;;;1.77;;
70420;SDS011;57848;51.938;15.520;2023-06-01T01:55:55;6.82;;;1.30;;
70420;SDS011;57848;51.938;15.520;2023-06-01T01:58:22;5.30;;;1.43;;
70420;SDS011;57848;51.938;15.520;2023-06-01T02:00:48;5.95;;;1.52;;
70420;SDS011;57848;51.938;15.520;2023-06-01T02:03:15;6.93;;;1.20;;
70420;SDS011;57848;51.938;15.520;2023-06-01T02:05:42;7.97;;;1.67;;
70420;SDS011;57848;51.938;15.520;2023-06-01T02:08:08;5.65;;;1.48;;
70420;SDS011;57848;51.938;15.520;2023-06-01T02:10:34;6.10;;;1.00;;
70420;SDS011;57848;51.938;15.520;2023-06-01T02:12:59;5.20;;;1.38;;
70420;SDS011;57848;51.938;15.520;2023-06-01T02:15:25;4.70;;;1.33;;
70420;SDS011;57848;51.938;15.520;2023-06-01T02:17:51;5.68;;;1.63;;
70420;SDS011;57848;51.938;15.520;2023-06-01T02:20:18;4.93;;;1.50;;
70420;SDS011;57848;51.938;15.520;2023-06-01T02:22:44;6.57;;;1.30;;
70420;SDS011;57848;51.938;15.520;2023-06-01T02:25:10;4.70;;;1.30;;
70420;SDS011;57848;51.938;15.520;2023-06-01T02:27:35;6.73;;;1.70;;
70420;SDS011;57848;51.938;15.520;2023-06-01T02:30:01;6.57;;;1.60;;
70420;SDS011;57848;51.938;15.520;2023-06-01T02:32:26;5.13;;;1.27;;
70420;SDS011;57848;51.938;15.520;2023-06-01T02:34:53;7.07;;;1.77;;
70420;SDS011;57848;51.938;15.520;2023-06-01T02:37:18;8.37;;;1.60;;
70420;SDS011;57848;51.938;15.520;2023-06-01T02:39:44;8.03;;;1.77;;
70420;SDS011;57848;51.938;15.520;2023-06-01T02:42:09;6.85;;;1.67;;
70420;SDS011;57848;51.938;15.520;2023-06-01T02:44:35;6.10;;;1.50;;
70420;SDS011;57848;51.938;15.520;2023-06-01T02:47:01;6.28;;;1.40;;
70420;SDS011;57848;51.938;15.520;2023-06-01T02:49:28;6.22;;;1.92;;
70420;SDS011;57848;51.938;15.520;2023-06-01T02:51:53;7.23;;;1.90;;
70420;SDS011;57848;51.938;15.520;2023-06-01T02:54:22;7.90;;;1.90;;
70420;SDS011;57848;51.938;15.520;2023-06-01T02:56:47;8.67;;;1.80;;
70420;SDS011;57848;51.938;15.520;2023-06-01T02:59:32;5.63;;;1.40;;
70420;SDS011;57848;51.938;15.520;2023-06-01T03:02:01;7.00;;;2.13;;
70420;SDS011;57848;51.938;15.520;2023-06-01T03:04:27;6.22;;;1.80;;
70420;SDS011;57848;51.938;15.520;2023-06-01T03:06:54;5.70;;;1.50;;
70420;SDS011;57848;51.938;15.520;2023-06-01T03:09:22;7.73;;;2.10;;
70420;SDS011;57848;51.938;15.520;2023-06-01T03:11:52;6.47;;;1.98;;
70420;SDS011;57848;51.938;15.520;2023-06-01T03:14:17;5.50;;;1.77;;
70420;SDS011;57848;51.938;15.520;2023-06-01T03:16:44;6.47;;;1.67;;
70420;SDS011;57848;51.938;15.520;2023-06-01T03:19:15;6.78;;;1.75;;
70420;SDS011;57848;51.938;15.520;2023-06-01T03:21:41;6.68;;;1.85;;
70420;SDS011;57848;51.938;15.520;2023-06-01T03:24:07;8.33;;;1.80;;
70420;SDS011;57848;51.938;15.520;2023-06-01T03:26:32;6.90;;;2.13;;
70420;SDS011;57848;51.938;15.520;2023-06-01T03:28:58;10.50;;;1.90;;
70420;SDS011;57848;51.938;15.520;2023-06-01T03:31:26;7.13;;;1.77;;
70420;SDS011;57848;51.938;15.520;2023-06-01T03:33:54;7.05;;;2.08;;
70420;SDS011;57848;51.938;15.520;2023-06-01T03:36:20;9.80;;;2.17;;
70420;SDS011;57848;51.938;15.520;2023-06-01T03:38:45;7.18;;;1.83;;
70420;SDS011;57848;51.938;15.520;2023-06-01T03:41:11;6.70;;;1.87;;
70420;SDS011;57848;51.938;15.520;2023-06-01T03:43:36;8.83;;;2.20;;
70420;SDS011;57848;51.938;15.520;2023-06-01T03:46:01;8.47;;;1.90;;
70420;SDS011;57848;51.938;15.520;2023-06-01T03:48:27;7.47;;;2.00;;
70420;SDS011;57848;51.938;15.520;2023-06-01T03:50:53;6.80;;;2.10;;
70420;SDS011;57848;51.938;15.520;2023-06-01T03:53:18;6.10;;;1.97;;
70420;SDS011;57848;51.938;15.520;2023-06-01T03:55:44;8.90;;;2.20;;
70420;SDS011;57848;51.938;15.520;2023-06-01T03:58:22;8.13;;;2.05;;
70420;SDS011;57848;51.938;15.520;2023-06-01T04:00:48;9.00;;;1.97;;
70420;SDS011;57848;51.938;15.520;2023-06-01T04:03:14;8.20;;;2.15;;
70420;SDS011;57848;51.938;15.520;2023-06-01T04:05:40;6.15;;;1.85;;
70420;SDS011;57848;51.938;15.520;2023-06-01T04:08:06;6.10;;;1.90;;
70420;SDS011;57848;51.938;15.520;2023-06-01T04:10:33;9.47;;;1.90;;
70420;SDS011;57848;51.938;15.520;2023-06-01T04:12:59;7.30;;;2.20;;
70420;SDS011;57848;51.938;15.520;2023-06-01T04:15:27;7.78;;;2.00;;
70420;SDS011;57848;51.938;15.520;2023-06-01T04:17:52;8.30;;;2.00;;
70420;SDS011;57848;51.938;15.520;2023-06-01T04:20:18;6.67;;;2.10;;
70420;SDS011;57848;51.938;15.520;2023-06-01T04:22:44;8.25;;;2.03;;
70420;SDS011;57848;51.938;15.520;2023-06-01T04:25:12;7.18;;;2.00;;
70420;SDS011;57848;51.938;15.520;2023-06-01T04:27:42;7.53;;;1.80;;
70420;SDS011;57848;51.938;15.520;2023-06-01T04:30:11;6.45;;;2.22;;
70420;SDS011;57848;51.938;15.520;2023-06-01T04:32:38;10.65;;;2.67;;
70420;SDS011;57848;51.938;15.520;2023-06-01T04:35:04;8.68;;;3.25;;
70420;SDS011;57848;51.938;15.520;2023-06-01T04:37:35;6.90;;;2.10;;
70420;SDS011;57848;51.938;15.520;2023-06-01T04:40:04;7.60;;;2.00;;
70420;SDS011;57848;51.938;15.520;2023-06-01T04:42:33;6.88;;;2.17;;
70420;SDS011;57848;51.938;15.520;2023-06-01T04:44:59;12.73;;;2.65;;
70420;SDS011;57848;51.938;15.520;2023-06-01T04:47:30;7.63;;;2.20;;
70420;SDS011;57848;51.938;15.520;2023-06-01T04:49:57;9.63;;;2.50;;
70420;SDS011;57848;51.938;15.520;2023-06-01T04:52:22;9.97;;;2.60;;
70420;SDS011;57848;51.938;15.520;2023-06-01T04:54:49;6.57;;;2.20;;
70420;SDS011;57848;51.938;15.520;2023-06-01T04:57:14;6.53;;;2.23;;
70420;SDS011;57848;51.938;15.520;2023-06-01T04:59:41;6.50;;;2.20;;
70420;SDS011;57848;51.938;15.520;2023-06-01T05:02:07;10.90;;;2.53;;
70420;SDS011;57848;51.938;15.520;2023-06-01T05:04:33;7.93;;;2.42;;
70420;SDS011;57848;51.938;15.520;2023-06-01T05:06:59;8.40;;;2.00;;
70420;SDS011;57848;51.938;15.520;2023-06-01T05:09:25;9.07;;;2.60;;
70420;SDS011;57848;51.938;15.520;2023-06-01T05:11:51;9.07;;;2.83;;
70420;SDS011;57848;51.938;15.520;2023-06-01T05:14:16;6.87;;;2.00;;
70420;SDS011;57848;51.938;15.520;2023-06-01T05:16:42;9.10;;;2.65;;
70420;SDS011;57848;51.938;15.520;2023-06-01T05:19:07;8.33;;;2.67;;
70420;SDS011;57848;51.938;15.520;2023-06-01T05:21:33;7.95;;;2.25;;
70420;SDS011;57848;51.938;15.520;2023-06-01T05:23:59;9.43;;;2.57;;
70420;SDS011;57848;51.938;15.520;2023-06-01T05:26:25;13.80;;;2.47;;
70420;SDS011;57848;51.938;15.520;2023-06-01T05:28:52;8.75;;;2.70;;
70420;SDS011;57848;51.938;15.520;2023-06-01T05:31:17;8.67;;;2.67;;
70420;SDS011;57848;51.938;15.520;2023-06-01T05:33:48;11.27;;;2.33;;
70420;SDS011;57848;51.938;15.520;2023-06-01T05:36:15;9.93;;;3.03;;
70420;SDS011;57848;51.938;15.520;2023-06-01T05:38:40;9.23;;;2.67;;
70420;SDS011;57848;51.938;15.520;2023-06-01T05:41:06;9.70;;;2.70;;
70420;SDS011;57848;51.938;15.520;2023-06-01T05:43:32;9.00;;;2.53;;
70420;SDS011;57848;51.938;15.520;2023-06-01T05:46:00;8.63;;;2.72;;
70420;SDS011;57848;51.938;15.520;2023-06-01T05:48:26;9.37;;;3.00;;
70420;SDS011;57848;51.938;15.520;2023-06-01T05:50:53;10.55;;;2.50;;
70420;SDS011;57848;51.938;15.520;2023-06-01T05:53:18;8.60;;;2.53;;
70420;SDS011;57848;51.938;15.520;2023-06-01T05:55:44;10.73;;;2.67;;
70420;SDS011;57848;51.938;15.520;2023-06-01T05:58:09;10.97;;;2.80;;
70420;SDS011;57848;51.938;15.520;2023-06-01T06:00:35;11.52;;;3.00;;
70420;SDS011;57848;51.938;15.520;2023-06-01T06:03:01;10.73;;;3.10;;
70420;SDS011;57848;51.938;15.520;2023-06-01T06:05:26;11.07;;;2.90;;
70420;SDS011;57848;51.938;15.520;2023-06-01T06:07:52;10.05;;;3.13;;
70420;SDS011;57848;51.938;15.520;2023-06-01T06:10:17;10.73;;;3.20;;
70420;SDS011;57848;51.938;15.520;2023-06-01T06:12:42;10.83;;;3.47;;
70420;SDS011;57848;51.938;15.520;2023-06-01T06:15:08;10.40;;;3.40;;
70420;SDS011;57848;51.938;15.520;2023-06-01T06:17:33;9.82;;;3.08;;
70420;SDS011;57848;51.938;15.520;2023-06-01T06:19:59;10.43;;;2.90;;
70420;SDS011;57848;51.938;15.520;2023-06-01T06:22:24;10.00;;;3.00;;
70420;SDS011;57848;51.938;15.520;2023-06-01T06:24:50;14.53;;;3.63;;
70420;SDS011;57848;51.938;15.520;2023-06-01T06:27:15;7.33;;;3.00;;
70420;SDS011;57848;51.938;15.520;2023-06-01T06:29:41;12.40;;;3.30;;
70420;SDS011;57848;51.938;15.520;2023-06-01T06:32:06;8.93;;;2.53;;
70420;SDS011;57848;51.938;15.520;2023-06-01T06:34:32;10.93;;;2.70;;
70420;SDS011;57848;51.938;15.520;2023-06-01T06:37:02;11.25;;;2.88;;
70420;SDS011;57848;51.938;15.520;2023-06-01T06:39:28;11.23;;;3.50;;
70420;SDS011;57848;51.938;15.520;2023-06-01T06:41:53;10.13;;;2.90;;
70420;SDS011;57848;51.938;15.520;2023-06-01T06:44:18;9.20;;;2.83;;
70420;SDS011;57848;51.938;15.520;2023-06-01T06:46:44;9.83;;;3.23;;
70420;SDS011;57848;51.938;15.520;2023-06-01T06:49:09;8.97;;;2.53;;
70420;SDS011;57848;51.938;15.520;2023-06-01T06:51:36;9.43;;;2.90;;
70420;SDS011;57848;51.938;15.520;2023-06-01T06:54:02;12.82;;;2.97;;
70420;SDS011;57848;51.938;15.520;2023-06-01T06:56:30;8.57;;;2.70;;
70420;SDS011;57848;51.938;15.520;2023-06-01T06:58:55;9.53;;;3.10;;
70420;SDS011;57848;51.938;15.520;2023-06-01T07:01:21;9.73;;;2.70;;
70420;SDS011;57848;51.938;15.520;2023-06-01T07:03:46;12.50;;;3.00;;
70420;SDS011;57848;51.938;15.520;2023-06-01T07:06:12;10.40;;;3.07;;
70420;SDS011;57848;51.938;15.520;2023-06-01T07:08:37;10.30;;;2.70;;
70420;SDS011;57848;51.938;15.520;2023-06-01T07:11:03;9.40;;;3.17;;
70420;SDS011;57848;51.938;15.520;2023-06-01T07:13:29;10.05;;;2.53;;
70420;SDS011;57848;51.938;15.520;2023-06-01T07:15:55;11.47;;;2.87;;
70420;SDS011;57848;51.938;15.520;2023-06-01T07:18:21;10.87;;;3.07;;
70420;SDS011;57848;51.938;15.520;2023-06-01T07:20:46;10.88;;;2.72;;
70420;SDS011;57848;51.938;15.520;2023-06-01T07:23:11;9.23;;;2.90;;
70420;SDS011;57848;51.938;15.520;2023-06-01T07:25:40;7.38;;;2.80;;
70420;SDS011;57848;51.938;15.520;2023-06-01T07:28:06;9.47;;;2.87;;
70420;SDS011;57848;51.938;15.520;2023-06-01T07:30:32;10.07;;;2.87;;
70420;SDS011;57848;51.938;15.520;2023-06-01T07:32:57;10.57;;;3.30;;
70420;SDS011;57848;51.938;15.520;2023-06-01T07:35:22;10.80;;;3.17;;
70420;SDS011;57848;51.938;15.520;2023-06-01T07:37:48;10.83;;;2.97;;
70420;SDS011;57848;51.938;15.520;2023-06-01T07:40:13;8.50;;;2.80;;
70420;SDS011;57848;51.938;15.520;2023-06-01T07:42:39;10.10;;;3.30;;
70420;SDS011;57848;51.938;15.520;2023-06-01T07:45:04;9.52;;;3.08;;
70420;SDS011;57848;51.938;15.520;2023-06-01T07:47:31;10.90;;;3.20;;
70420;SDS011;57848;51.938;15.520;2023-06-01T07:49:56;8.67;;;3.00;;
70420;SDS011;57848;51.938;15.520;2023-06-01T07:52:22;11.37;;;3.03;;
70420;SDS011;57848;51.938;15.520;2023-06-01T07:54:47;9.47;;;3.33;;
70420;SDS011;57848;51.938;15.520;2023-06-01T07:57:14;12.65;;;3.20;;
70420;SDS011;57848;51.938;15.520;2023-06-01T07:59:40;10.38;;;3.45;;
70420;SDS011;57848;51.938;15.520;2023-06-01T08:02:06;10.20;;;3.30;;
70420;SDS011;57848;51.938;15.520;2023-06-01T08:04:31;10.27;;;3.42;;
70420;SDS011;57848;51.938;15.520;2023-06-01T08:06:59;17.88;;;3.85;;
70420;SDS011;57848;51.938;15.520;2023-06-01T08:09:27;13.40;;;3.30;;
70420;SDS011;57848;51.938;15.520;2023-06-01T08:11:53;11.40;;;3.57;;
70420;SDS011;57848;51.938;15.520;2023-06-01T08:14:18;10.53;;;3.00;;
70420;SDS011;57848;51.938;15.520;2023-06-01T08:16:44;11.63;;;3.17;;
70420;SDS011;57848;51.938;15.520;2023-06-01T08:19:10;12.93;;;3.40;;
70420;SDS011;57848;51.938;15.520;2023-06-01T08:21:36;9.75;;;3.67;;
70420;SDS011;57848;51.938;15.520;2023-06-01T08:24:02;9.33;;;3.40;;
70420;SDS011;57848;51.938;15.520;2023-06-01T08:26:28;10.05;;;3.65;;
70420;SDS011;57848;51.938;15.520;2023-06-01T08:28:54;8.57;;;3.05;;
70420;SDS011;57848;51.938;15.520;2023-06-01T08:31:20;8.73;;;3.30;;
70420;SDS011;57848;51.938;15.520;2023-06-01T08:33:47;10.63;;;3.42;;
70420;SDS011;57848;51.938;15.520;2023-06-01T08:36:13;10.07;;;3.25;;
70420;SDS011;57848;51.938;15.520;2023-06-01T08:38:39;8.80;;;3.50;;
70420;SDS011;57848;51.938;15.520;2023-06-01T08:43:58;15.65;;;3.63;;
70420;SDS011;57848;51.938;15.520;2023-06-01T08:46:24;11.40;;;2.85;;
70420;SDS011;57848;51.938;15.520;2023-06-01T08:48:52;14.55;;;3.60;;
70420;SDS011;57848;51.938;15.520;2023-06-01T08:51:19;9.93;;;3.40;;
70420;SDS011;57848;51.938;15.520;2023-06-01T08:53:46;10.20;;;3.00;;
70420;SDS011;57848;51.938;15.520;2023-06-01T08:56:14;10.52;;;3.67;;
70420;SDS011;57848;51.938;15.520;2023-06-01T08:58:40;15.55;;;3.92;;
70420;SDS011;57848;51.938;15.520;2023-06-01T09:01:06;10.13;;;3.87;;
70420;SDS011;57848;51.938;15.520;2023-06-01T09:03:32;11.32;;;3.80;;
70420;SDS011;57848;51.938;15.520;2023-06-01T09:05:57;15.33;;;4.17;;
70420;SDS011;57848;51.938;15.520;2023-06-01T09:08:23;15.57;;;3.63;;
70420;SDS011;57848;51.938;15.520;2023-06-01T09:10:49;13.27;;;3.63;;
70420;SDS011;57848;51.938;15.520;2023-06-01T09:13:30;9.07;;;3.53;;
70420;SDS011;57848;51.938;15.520;2023-06-01T09:15:56;11.55;;;3.90;;
70420;SDS011;57848;51.938;15.520;2023-06-01T09:18:22;10.00;;;3.20;;
70420;SDS011;57848;51.938;15.520;2023-06-01T09:20:47;11.07;;;3.70;;
70420;SDS011;57848;51.938;15.520;2023-06-01T09:23:22;13.23;;;3.90;;
70420;SDS011;57848;51.938;15.520;2023-06-01T09:25:48;12.23;;;4.50;;
70420;SDS011;57848;51.938;15.520;2023-06-01T09:34:09;14.18;;;3.53;;
70420;SDS011;57848;51.938;15.520;2023-06-01T09:36:36;11.05;;;3.63;;
70420;SDS011;57848;51.938;15.520;2023-06-01T09:39:06;10.20;;;3.50;;
70420;SDS011;57848;51.938;15.520;2023-06-01T09:44:22;11.57;;;3.67;;
70420;SDS011;57848;51.938;15.520;2023-06-01T09:46:49;10.23;;;3.40;;
70420;SDS011;57848;51.938;15.520;2023-06-01T09:49:23;9.23;;;3.30;;
70420;SDS011;57848;51.938;15.520;2023-06-01T09:51:53;8.88;;;3.38;;
70420;SDS011;57848;51.938;15.520;2023-06-01T09:57:09;7.57;;;3.13;;
70420;SDS011;57848;51.938;15.520;2023-06-01T09:59:43;9.18;;;2.90;;
70420;SDS011;57848;51.938;15.520;2023-06-01T10:04:47;8.68;;;3.15;;
70420;SDS011;57848;51.938;15.520;2023-06-01T10:07:15;10.30;;;3.55;;
70420;SDS011;57848;51.938;15.520;2023-06-01T10:09:43;8.87;;;3.73;;
70420;SDS011;57848;51.938;15.520;2023-06-01T10:12:10;9.15;;;3.17;;
70420;SDS011;57848;51.938;15.520;2023-06-01T10:14:37;16.15;;;3.70;;
70420;SDS011;57848;51.938;15.520;2023-06-01T10:17:03;11.98;;;3.88;;
70420;SDS011;57848;51.938;15.520;2023-06-01T10:19:29;9.20;;;3.40;;
70420;SDS011;57848;51.938;15.520;2023-06-01T10:21:59;8.45;;;2.83;;
70420;SDS011;57848;51.938;15.520;2023-06-01T10:24:25;14.30;;;2.90;;
70420;SDS011;57848;51.938;15.520;2023-06-01T10:29:17;11.60;;;3.90;;
70420;SDS011;57848;51.938;15.520;2023-06-01T10:31:43;9.63;;;3.20;;
70420;SDS011;57848;51.938;15.520;2023-06-01T10:34:10;8.23;;;3.20;;
70420;SDS011;57848;51.938;15.520;2023-06-01T10:37:09;8.88;;;3.10;;
70420;SDS011;57848;51.938;15.520;2023-06-01T10:39:31;9.50;;;3.20;;
70420;SDS011;57848;51.938;15.520;2023-06-01T10:41:57;9.90;;;2.87;;
70420;SDS011;57848;51.938;15.520;2023-06-01T10:52:30;11.32;;;3.05;;
70420;SDS011;57848;51.938;15.520;2023-06-01T10:57:32;9.25;;;3.05;;
70420;SDS011;57848;51.938;15.520;2023-06-01T11:02:43;8.90;;;2.70;;
70420;SDS011;57848;51.938;15.520;2023-06-01T11:11:00;8.63;;;2.90;;
70420;SDS011;57848;51.938;15.520;2023-06-01T11:13:31;8.27;;;2.90;;
70420;SDS011;57848;51.938;15.520;2023-06-01T11:21:27;8.10;;;2.88;;
70420;SDS011;57848;51.938;15.520;2023-06-01T11:23:53;7.75;;;2.90;;
70420;SDS011;57848;51.938;15.520;2023-06-01T11:26:22;9.23;;;3.27;;
70420;SDS011;57848;51.938;15.520;2023-06-01T11:28:52;8.73;;;2.60;;
70420;SDS011;57848;51.938;15.520;2023-06-01T11:31:27;8.68;;;3.05;;
70420;SDS011;57848;51.938;15.520;2023-06-01T11:33:58;9.40;;;3.42;;
70420;SDS011;57848;51.938;15.520;2023-06-01T11:36:25;11.02;;;3.10;;
70420;SDS011;57848;51.938;15.520;2023-06-01T11:38:52;6.63;;;2.60;;
70420;SDS011;57848;51.938;15.520;2023-06-01T11:41:21;8.38;;;2.90;;
70420;SDS011;57848;51.938;15.520;2023-06-01T11:43:55;11.10;;;3.10;;
70420;SDS011;57848;51.938;15.520;2023-06-01T11:46:21;11.85;;;2.80;;
70420;SDS011;57848;51.938;15.520;2023-06-01T11:49:03;6.55;;;2.70;;
70420;SDS011;57848;51.938;15.520;2023-06-01T11:51:36;7.50;;;2.67;;
70420;SDS011;57848;51.938;15.520;2023-06-01T11:54:02;7.55;;;2.83;;
70420;SDS011;57848;51.938;15.520;2023-06-01T11:56:29;11.43;;;3.20;;
70420;SDS011;57848;51.938;15.520;2023-06-01T11:59:00;9.27;;;3.10;;
70420;SDS011;57848;51.938;15.520;2023-06-01T12:01:27;9.52;;;3.13;;
70420;SDS011;57848;51.938;15.520;2023-06-01T12:03:52;8.80;;;2.63;;
70420;SDS011;57848;51.938;15.520;2023-06-01T12:06:23;9.07;;;2.85;;
70420;SDS011;57848;51.938;15.520;2023-06-01T12:08:50;7.47;;;2.90;;
70420;SDS011;57848;51.938;15.520;2023-06-01T12:11:18;9.25;;;3.35;;
70420;SDS011;57848;51.938;15.520;2023-06-01T12:13:46;9.85;;;3.22;;
70420;SDS011;57848;51.938;15.520;2023-06-01T12:16:13;8.00;;;3.33;;
70420;SDS011;57848;51.938;15.520;2023-06-01T12:18:40;8.60;;;3.03;;
70420;SDS011;57848;51.938;15.520;2023-06-01T12:21:09;7.33;;;2.80;;
70420;SDS011;57848;51.938;15.520;2023-06-01T12:23:35;9.38;;;3.22;;
70420;SDS011;57848;51.938;15.520;2023-06-01T12:26:01;8.30;;;3.20;;
70420;SDS011;57848;51.938;15.520;2023-06-01T12:28:27;7.90;;;2.90;;
70420;SDS011;57848;51.938;15.520;2023-06-01T12:31:11;7.05;;;3.10;;
70420;SDS011;57848;51.938;15.520;2023-06-01T12:33:38;9.88;;;3.40;;
70420;SDS011;57848;51.938;15.520;2023-06-01T12:36:05;8.27;;;3.03;;
70420;SDS011;57848;51.938;15.520;2023-06-01T12:39:05;7.97;;;2.73;;
70420;SDS011;57848;51.938;15.520;2023-06-01T12:41:24;7.35;;;3.25;;
70420;SDS011;57848;51.938;15.520;2023-06-01T12:43:50;13.45;;;3.42;;
70420;SDS011;57848;51.938;15.520;2023-06-01T12:46:19;10.23;;;3.10;;
70420;SDS011;57848;51.938;15.520;2023-06-01T12:48:49;9.57;;;3.20;;
70420;SDS011;57848;51.938;15.520;2023-06-01T12:51:16;9.27;;;3.10;;
70420;SDS011;57848;51.938;15.520;2023-06-01T12:53:42;8.88;;;3.00;;
70420;SDS011;57848;51.938;15.520;2023-06-01T12:56:07;7.17;;;2.83;;
70420;SDS011;57848;51.938;15.520;2023-06-01T12:58:34;7.75;;;3.03;;
70420;SDS011;57848;51.938;15.520;2023-06-01T13:00:59;7.63;;;3.33;;
70420;SDS011;57848;51.938;15.520;2023-06-01T13:03:25;8.45;;;2.60;;
70420;SDS011;57848;51.938;15.520;2023-06-01T13:05:50;7.43;;;2.93;;
70420;SDS011;57848;51.938;15.520;2023-06-01T13:08:16;7.00;;;2.97;;
70420;SDS011;57848;51.938;15.520;2023-06-01T13:10:42;9.80;;;3.30;;
70420;SDS011;57848;51.938;15.520;2023-06-01T13:13:08;9.68;;;2.80;;
70420;SDS011;57848;51.938;15.520;2023-06-01T13:15:34;7.93;;;3.00;;
70420;SDS011;57848;51.938;15.520;2023-06-01T13:18:00;8.50;;;2.53;;
70420;SDS011;57848;51.938;15.520;2023-06-01T13:20:26;11.40;;;2.90;;
70420;SDS011;57848;51.938;15.520;2023-06-01T13:22:52;10.60;;;3.20;;
70420;SDS011;57848;51.938;15.520;2023-06-01T13:25:17;7.10;;;2.80;;
70420;SDS011;57848;51.938;15.520;2023-06-01T13:27:46;8.17;;;2.73;;
70420;SDS011;57848;51.938;15.520;2023-06-01T13:30:12;7.87;;;3.00;;
70420;SDS011;57848;51.938;15.520;2023-06-01T13:32:38;9.67;;;3.00;;
70420;SDS011;57848;51.938;15.520;2023-06-01T13:35:03;7.03;;;2.92;;
70420;SDS011;57848;51.938;15.520;2023-06-01T13:37:29;7.80;;;2.80;;
70420;SDS011;57848;51.938;15.520;2023-06-01T13:39:55;7.93;;;3.10;;
70420;SDS011;57848;51.938;15.520;2023-06-01T13:42:20;10.40;;;3.27;;
70420;SDS011;57848;51.938;15.520;2023-06-01T13:44:45;8.97;;;3.10;;
70420;SDS011;57848;51.938;15.520;2023-06-01T13:47:15;8.30;;;3.00;;
70420;SDS011;57848;51.938;15.520;2023-06-01T13:49:41;8.02;;;3.25;;
70420;SDS011;57848;51.938;15.520;2023-06-01T13:52:07;9.70;;;3.10;;
70420;SDS011;57848;51.938;15.520;2023-06-01T13:54:33;8.60;;;3.10;;
70420;SDS011;57848;51.938;15.520;2023-06-01T13:56:58;10.00;;;3.30;;
70420;SDS011;57848;51.938;15.520;2023-06-01T13:59:24;7.97;;;3.30;;
70420;SDS011;57848;51.938;15.520;2023-06-01T14:01:49;8.10;;;2.70;;
70420;SDS011;57848;51.938;15.520;2023-06-01T14:04:15;8.90;;;3.08;;
70420;SDS011;57848;51.938;15.520;2023-06-01T14:06:41;8.40;;;2.87;;
70420;SDS011;57848;51.938;15.520;2023-06-01T14:09:07;9.95;;;3.05;;
70420;SDS011;57848;51.938;15.520;2023-06-01T14:11:32;8.87;;;2.93;;
70420;SDS011;57848;51.938;15.520;2023-06-01T14:13:57;7.50;;;2.60;;
70420;SDS011;57848;51.938;15.520;2023-06-01T14:16:23;7.73;;;2.57;;
70420;SDS011;57848;51.938;15.520;2023-06-01T14:18:48;8.23;;;2.83;;
70420;SDS011;57848;51.938;15.520;2023-06-01T14:21:13;8.23;;;2.83;;
70420;SDS011;57848;51.938;15.520;2023-06-01T14:23:39;10.70;;;3.07;;
70420;SDS011;57848;51.938;15.520;2023-06-01T14:26:06;10.33;;;2.97;;
70420;SDS011;57848;51.938;15.520;2023-06-01T14:28:31;10.20;;;3.03;;
70420;SDS011;57848;51.938;15.520;2023-06-01T14:30:57;8.87;;;2.90;;
70420;SDS011;57848;51.938;15.520;2023-06-01T14:33:22;9.40;;;3.17;;
70420;SDS011;57848;51.938;15.520;2023-06-01T14:35:47;9.17;;;2.93;;
70420;SDS011;57848;51.938;15.520;2023-06-01T14:38:13;12.50;;;3.10;;
70420;SDS011;57848;51.938;15.520;2023-06-01T14:40:38;10.10;;;3.17;;
70420;SDS011;57848;51.938;15.520;2023-06-01T14:43:03;9.27;;;3.40;;
70420;SDS011;57848;51.938;15.520;2023-06-01T14:45:29;10.57;;;3.45;;
70420;SDS011;57848;51.938;15.520;2023-06-01T14:47:54;13.57;;;3.03;;
70420;SDS011;57848;51.938;15.520;2023-06-01T14:50:20;11.63;;;3.17;;
70420;SDS011;57848;51.938;15.520;2023-06-01T14:52:45;8.35;;;3.00;;
70420;SDS011;57848;51.938;15.520;2023-06-01T14:55:11;10.60;;;3.10;;
70420;SDS011;57848;51.938;15.520;2023-06-01T14:57:36;10.33;;;3.10;;
70420;SDS011;57848;51.938;15.520;2023-06-01T15:00:02;9.53;;;2.70;;
70420;SDS011;57848;51.938;15.520;2023-06-01T15:02:27;8.98;;;3.22;;
70420;SDS011;57848;51.938;15.520;2023-06-01T15:04:53;10.03;;;2.93;;
70420;SDS011;57848;51.938;15.520;2023-06-01T15:07:18;11.47;;;3.30;;
70420;SDS011;57848;51.938;15.520;2023-06-01T15:09:43;9.27;;;2.80;;
70420;SDS011;57848;51.938;15.520;2023-06-01T15:12:09;12.73;;;3.97;;
70420;SDS011;57848;51.938;15.520;2023-06-01T15:14:34;7.80;;;2.80;;
70420;SDS011;57848;51.938;15.520;2023-06-01T15:16:59;10.20;;;3.03;;
70420;SDS011;57848;51.938;15.520;2023-06-01T15:19:25;7.60;;;3.53;;
70420;SDS011;57848;51.938;15.520;2023-06-01T15:21:50;10.33;;;2.93;;
70420;SDS011;57848;51.938;15.520;2023-06-01T15:24:16;8.33;;;3.00;;